sensor_id;sensor_type;location;lat;lon;timestamp;P1;durP1;ratioP1;P2;durP2;ratioP2
63342;SDS011;49465;57.664;39.686;2023-04-03T00:01:25;14.63;;;10.25;;
63342;SDS011;49465;57.664;39.686;2023-04-03T00:03:52;15.50;;;10.45;;
63342;SDS011;49465;57.664;39.686;2023-04-03T00:06:18;12.57;;;9.85;;
63342;SDS011;49465;57.664;39.686;2023-04-03T00:08:44;13.35;;;9.93;;
63342;SDS011;49465;57.664;39.686;2023-04-03T00:11:11;14.05;;;9.32;;
63342;SDS011;49465;57.664;39.686;2023-04-03T00:13:40;11.68;;;9.07;;
63342;SDS011;49465;57.664;39.686;2023-04-03T00:16:07;14.32;;;9.13;;
63342;SDS011;49465;57.664;39.686;2023-04-03T00:18:34;12.95;;;9.10;;
63342;SDS011;49465;57.664;39.686;2023-04-03T00:21:07;12.80;;;9.13;;
63342;SDS011;49465;57.664;39.686;2023-04-03T00:23:40;14.13;;;9.13;;
63342;SDS011;49465;57.664;39.686;2023-04-03T00:26:06;12.77;;;8.77;;
63342;SDS011;49465;57.664;39.686;2023-04-03T00:28:45;11.80;;;8.50;;
63342;SDS011;49465;57.664;39.686;2023-04-03T00:31:14;13.32;;;9.07;;
63342;SDS011;49465;57.664;39.686;2023-04-03T00:33:41;13.00;;;8.30;;
63342;SDS011;49465;57.664;39.686;2023-04-03T00:36:09;12.25;;;8.43;;
63342;SDS011;49465;57.664;39.686;2023-04-03T00:38:35;14.18;;;9.02;;
63342;SDS011;49465;57.664;39.686;2023-04-03T00:41:05;11.48;;;9.15;;
63342;SDS011;49465;57.664;39.686;2023-04-03T00:43:35;12.85;;;8.80;;
63342;SDS011;49465;57.664;39.686;2023-04-03T00:46:02;12.63;;;8.75;;
63342;SDS011;49465;57.664;39.686;2023-04-03T00:48:36;12.80;;;8.57;;
63342;SDS011;49465;57.664;39.686;2023-04-03T00:51:20;11.63;;;8.75;;
63342;SDS011;49465;57.664;39.686;2023-04-03T00:53:53;14.40;;;9.48;;
63342;SDS011;49465;57.664;39.686;2023-04-03T00:56:24;11.48;;;8.70;;
63342;SDS011;49465;57.664;39.686;2023-04-03T01:01:57;11.80;;;9.32;;
63342;SDS011;49465;57.664;39.686;2023-04-03T01:04:30;13.25;;;9.63;;
63342;SDS011;49465;57.664;39.686;2023-04-03T01:07:01;13.85;;;9.68;;
63342;SDS011;49465;57.664;39.686;2023-04-03T01:09:37;12.07;;;9.30;;
63342;SDS011;49465;57.664;39.686;2023-04-03T01:15:09;13.63;;;10.20;;
63342;SDS011;49465;57.664;39.686;2023-04-03T01:17:57;13.43;;;9.90;;
63342;SDS011;49465;57.664;39.686;2023-04-03T01:25:45;14.75;;;10.43;;
63342;SDS011;49465;57.664;39.686;2023-04-03T01:28:21;13.00;;;9.45;;
63342;SDS011;49465;57.664;39.686;2023-04-03T01:31:01;13.60;;;9.65;;
63342;SDS011;49465;57.664;39.686;2023-04-03T01:33:37;13.07;;;9.63;;
63342;SDS011;49465;57.664;39.686;2023-04-03T01:36:08;16.42;;;10.52;;
63342;SDS011;49465;57.664;39.686;2023-04-03T01:41:04;14.60;;;10.55;;
63342;SDS011;49465;57.664;39.686;2023-04-03T01:43:31;14.00;;;10.65;;
63342;SDS011;49465;57.664;39.686;2023-04-03T01:45:57;14.18;;;10.73;;
63342;SDS011;49465;57.664;39.686;2023-04-03T01:48:23;12.43;;;10.15;;
63342;SDS011;49465;57.664;39.686;2023-04-03T01:50:50;14.00;;;10.32;;
63342;SDS011;49465;57.664;39.686;2023-04-03T01:53:16;15.05;;;10.57;;
63342;SDS011;49465;57.664;39.686;2023-04-03T01:55:45;18.35;;;10.35;;
63342;SDS011;49465;57.664;39.686;2023-04-03T01:58:14;15.05;;;10.05;;
63342;SDS011;49465;57.664;39.686;2023-04-03T02:00:43;13.98;;;10.20;;
63342;SDS011;49465;57.664;39.686;2023-04-03T02:03:12;13.55;;;10.05;;
63342;SDS011;49465;57.664;39.686;2023-04-03T02:05:42;13.73;;;10.00;;
63342;SDS011;49465;57.664;39.686;2023-04-03T02:08:08;14.27;;;9.77;;
63342;SDS011;49465;57.664;39.686;2023-04-03T02:10:38;14.02;;;9.43;;
63342;SDS011;49465;57.664;39.686;2023-04-03T02:13:08;12.90;;;9.40;;
63342;SDS011;49465;57.664;39.686;2023-04-03T02:15:38;16.15;;;10.13;;
63342;SDS011;49465;57.664;39.686;2023-04-03T02:18:04;18.05;;;9.95;;
63342;SDS011;49465;57.664;39.686;2023-04-03T02:20:31;14.73;;;10.02;;
63342;SDS011;49465;57.664;39.686;2023-04-03T02:22:59;15.23;;;10.80;;
63342;SDS011;49465;57.664;39.686;2023-04-03T02:25:29;13.48;;;10.35;;
63342;SDS011;49465;57.664;39.686;2023-04-03T02:27:59;13.25;;;9.95;;
63342;SDS011;49465;57.664;39.686;2023-04-03T02:30:25;14.50;;;9.93;;
63342;SDS011;49465;57.664;39.686;2023-04-03T02:32:52;13.73;;;10.25;;
63342;SDS011;49465;57.664;39.686;2023-04-03T02:35:21;13.30;;;9.68;;
63342;SDS011;49465;57.664;39.686;2023-04-03T02:37:53;14.15;;;9.50;;
63342;SDS011;49465;57.664;39.686;2023-04-03T02:40:22;13.68;;;10.35;;
63342;SDS011;49465;57.664;39.686;2023-04-03T02:42:48;13.75;;;9.90;;
63342;SDS011;49465;57.664;39.686;2023-04-03T02:45:20;14.38;;;10.13;;
63342;SDS011;49465;57.664;39.686;2023-04-03T02:47:46;14.65;;;9.80;;
63342;SDS011;49465;57.664;39.686;2023-04-03T02:50:12;14.73;;;9.98;;
63342;SDS011;49465;57.664;39.686;2023-04-03T02:52:39;15.60;;;10.10;;
63342;SDS011;49465;57.664;39.686;2023-04-03T02:55:06;13.25;;;9.90;;
63342;SDS011;49465;57.664;39.686;2023-04-03T02:57:32;15.48;;;10.68;;
63342;SDS011;49465;57.664;39.686;2023-04-03T02:59:59;15.63;;;11.02;;
63342;SDS011;49465;57.664;39.686;2023-04-03T03:02:25;15.52;;;9.65;;
63342;SDS011;49465;57.664;39.686;2023-04-03T03:04:51;16.45;;;10.45;;
63342;SDS011;49465;57.664;39.686;2023-04-03T03:07:18;15.23;;;10.55;;
63342;SDS011;49465;57.664;39.686;2023-04-03T03:09:44;14.25;;;10.25;;
63342;SDS011;49465;57.664;39.686;2023-04-03T03:12:10;17.85;;;10.77;;
63342;SDS011;49465;57.664;39.686;2023-04-03T03:14:37;18.15;;;10.73;;
63342;SDS011;49465;57.664;39.686;2023-04-03T03:17:03;16.83;;;10.93;;
63342;SDS011;49465;57.664;39.686;2023-04-03T03:19:29;14.88;;;10.57;;
63342;SDS011;49465;57.664;39.686;2023-04-03T03:21:56;15.40;;;10.20;;
63342;SDS011;49465;57.664;39.686;2023-04-03T03:24:25;13.00;;;10.23;;
63342;SDS011;49465;57.664;39.686;2023-04-03T03:26:54;14.00;;;10.13;;
63342;SDS011;49465;57.664;39.686;2023-04-03T03:29:26;14.10;;;10.32;;
63342;SDS011;49465;57.664;39.686;2023-04-03T03:31:56;15.60;;;9.98;;
63342;SDS011;49465;57.664;39.686;2023-04-03T03:34:30;14.73;;;10.75;;
63342;SDS011;49465;57.664;39.686;2023-04-03T03:37:05;15.85;;;11.15;;
63342;SDS011;49465;57.664;39.686;2023-04-03T03:39:41;14.38;;;11.30;;
63342;SDS011;49465;57.664;39.686;2023-04-03T03:42:10;19.00;;;11.82;;
63342;SDS011;49465;57.664;39.686;2023-04-03T03:44:39;18.25;;;11.25;;
63342;SDS011;49465;57.664;39.686;2023-04-03T03:47:05;16.02;;;10.95;;
63342;SDS011;49465;57.664;39.686;2023-04-03T03:49:34;17.02;;;11.63;;
63342;SDS011;49465;57.664;39.686;2023-04-03T03:52:05;16.52;;;11.80;;
63342;SDS011;49465;57.664;39.686;2023-04-03T03:54:35;17.55;;;12.43;;
63342;SDS011;49465;57.664;39.686;2023-04-03T03:57:02;19.52;;;12.63;;
63342;SDS011;49465;57.664;39.686;2023-04-03T03:59:31;21.23;;;13.55;;
63342;SDS011;49465;57.664;39.686;2023-04-03T04:01:58;16.10;;;12.77;;
63342;SDS011;49465;57.664;39.686;2023-04-03T04:04:27;18.98;;;13.48;;
63342;SDS011;49465;57.664;39.686;2023-04-03T04:06:53;20.17;;;13.32;;
63342;SDS011;49465;57.664;39.686;2023-04-03T04:09:22;18.65;;;13.38;;
63342;SDS011;49465;57.664;39.686;2023-04-03T04:11:49;19.65;;;14.27;;
63342;SDS011;49465;57.664;39.686;2023-04-03T04:14:15;19.95;;;13.25;;
63342;SDS011;49465;57.664;39.686;2023-04-03T04:16:44;20.45;;;13.57;;
63342;SDS011;49465;57.664;39.686;2023-04-03T04:19:19;20.05;;;13.13;;
63342;SDS011;49465;57.664;39.686;2023-04-03T04:21:45;18.63;;;12.93;;
63342;SDS011;49465;57.664;39.686;2023-04-03T04:24:15;18.05;;;12.90;;
63342;SDS011;49465;57.664;39.686;2023-04-03T04:26:41;17.55;;;12.70;;
63342;SDS011;49465;57.664;39.686;2023-04-03T04:29:11;18.90;;;12.77;;
63342;SDS011;49465;57.664;39.686;2023-04-03T04:31:40;16.80;;;12.48;;
63342;SDS011;49465;57.664;39.686;2023-04-03T04:34:09;19.42;;;12.48;;
63342;SDS011;49465;57.664;39.686;2023-04-03T04:36:39;21.48;;;13.07;;
63342;SDS011;49465;57.664;39.686;2023-04-03T04:39:05;22.40;;;12.93;;
63342;SDS011;49465;57.664;39.686;2023-04-03T04:41:32;19.95;;;13.13;;
63342;SDS011;49465;57.664;39.686;2023-04-03T04:43:59;20.75;;;12.32;;
63342;SDS011;49465;57.664;39.686;2023-04-03T04:46:25;17.77;;;12.52;;
63342;SDS011;49465;57.664;39.686;2023-04-03T04:48:54;20.63;;;12.65;;
63342;SDS011;49465;57.664;39.686;2023-04-03T04:51:24;16.35;;;11.52;;
63342;SDS011;49465;57.664;39.686;2023-04-03T04:53:51;18.80;;;11.60;;
63342;SDS011;49465;57.664;39.686;2023-04-03T04:56:17;17.48;;;11.73;;
63342;SDS011;49465;57.664;39.686;2023-04-03T04:58:43;15.02;;;11.77;;
63342;SDS011;49465;57.664;39.686;2023-04-03T05:01:12;16.83;;;11.43;;
63342;SDS011;49465;57.664;39.686;2023-04-03T05:03:41;17.63;;;11.38;;
63342;SDS011;49465;57.664;39.686;2023-04-03T05:06:11;20.58;;;12.07;;
63342;SDS011;49465;57.664;39.686;2023-04-03T05:08:37;19.15;;;12.18;;
63342;SDS011;49465;57.664;39.686;2023-04-03T05:11:03;22.15;;;13.70;;
63342;SDS011;49465;57.664;39.686;2023-04-03T05:13:33;22.90;;;15.05;;
63342;SDS011;49465;57.664;39.686;2023-04-03T05:16:02;24.45;;;15.10;;
63342;SDS011;49465;57.664;39.686;2023-04-03T05:18:28;23.08;;;15.15;;
63342;SDS011;49465;57.664;39.686;2023-04-03T05:20:54;20.02;;;15.38;;
63342;SDS011;49465;57.664;39.686;2023-04-03T05:23:21;22.25;;;15.73;;
63342;SDS011;49465;57.664;39.686;2023-04-03T05:25:47;22.33;;;16.15;;
63342;SDS011;49465;57.664;39.686;2023-04-03T05:28:16;22.60;;;15.32;;
63342;SDS011;49465;57.664;39.686;2023-04-03T05:30:43;21.05;;;14.70;;
63342;SDS011;49465;57.664;39.686;2023-04-03T05:33:20;23.33;;;14.57;;
63342;SDS011;49465;57.664;39.686;2023-04-03T05:35:50;19.63;;;14.65;;
63342;SDS011;49465;57.664;39.686;2023-04-03T05:38:20;23.15;;;13.70;;
63342;SDS011;49465;57.664;39.686;2023-04-03T05:40:49;21.77;;;14.00;;
63342;SDS011;49465;57.664;39.686;2023-04-03T05:43:24;21.42;;;14.02;;
63342;SDS011;49465;57.664;39.686;2023-04-03T05:45:51;24.73;;;15.98;;
63342;SDS011;49465;57.664;39.686;2023-04-03T05:48:20;22.65;;;15.02;;
63342;SDS011;49465;57.664;39.686;2023-04-03T05:50:46;22.08;;;13.98;;
63342;SDS011;49465;57.664;39.686;2023-04-03T05:53:27;21.45;;;13.50;;
63342;SDS011;49465;57.664;39.686;2023-04-03T05:55:59;20.13;;;14.15;;
63342;SDS011;49465;57.664;39.686;2023-04-03T05:58:25;20.30;;;13.20;;
63342;SDS011;49465;57.664;39.686;2023-04-03T06:00:54;22.88;;;13.63;;
63342;SDS011;49465;57.664;39.686;2023-04-03T06:03:20;19.85;;;14.52;;
63342;SDS011;49465;57.664;39.686;2023-04-03T06:05:50;23.80;;;15.10;;
63342;SDS011;49465;57.664;39.686;2023-04-03T06:08:18;21.38;;;15.90;;
63342;SDS011;49465;57.664;39.686;2023-04-03T06:10:45;24.42;;;17.40;;
63342;SDS011;49465;57.664;39.686;2023-04-03T06:13:13;26.73;;;18.20;;
63342;SDS011;49465;57.664;39.686;2023-04-03T06:15:40;25.45;;;19.98;;
63342;SDS011;49465;57.664;39.686;2023-04-03T06:18:09;28.00;;;20.35;;
63342;SDS011;49465;57.664;39.686;2023-04-03T06:20:38;27.25;;;19.05;;
63342;SDS011;49465;57.664;39.686;2023-04-03T06:23:16;27.02;;;19.35;;
63342;SDS011;49465;57.664;39.686;2023-04-03T06:25:42;27.83;;;19.08;;
63342;SDS011;49465;57.664;39.686;2023-04-03T06:28:12;25.02;;;18.42;;
63342;SDS011;49465;57.664;39.686;2023-04-03T06:30:40;20.83;;;14.93;;
63342;SDS011;49465;57.664;39.686;2023-04-03T06:33:09;24.10;;;15.50;;
63342;SDS011;49465;57.664;39.686;2023-04-03T06:35:39;24.30;;;18.00;;
63342;SDS011;49465;57.664;39.686;2023-04-03T06:38:10;28.60;;;21.13;;
63342;SDS011;49465;57.664;39.686;2023-04-03T06:40:37;28.58;;;21.58;;
63342;SDS011;49465;57.664;39.686;2023-04-03T06:43:11;33.80;;;25.15;;
63342;SDS011;49465;57.664;39.686;2023-04-03T06:45:40;34.63;;;25.80;;
63342;SDS011;49465;57.664;39.686;2023-04-03T06:48:12;26.77;;;18.92;;
63342;SDS011;49465;57.664;39.686;2023-04-03T06:50:38;21.00;;;16.17;;
63342;SDS011;49465;57.664;39.686;2023-04-03T06:53:05;24.10;;;17.17;;
63342;SDS011;49465;57.664;39.686;2023-04-03T06:55:35;25.60;;;19.75;;
63342;SDS011;49465;57.664;39.686;2023-04-03T06:58:02;26.98;;;19.60;;
63342;SDS011;49465;57.664;39.686;2023-04-03T07:00:28;23.63;;;18.02;;
63342;SDS011;49465;57.664;39.686;2023-04-03T07:02:58;23.45;;;16.45;;
63342;SDS011;49465;57.664;39.686;2023-04-03T07:05:26;22.55;;;16.25;;
63342;SDS011;49465;57.664;39.686;2023-04-03T07:07:53;17.98;;;14.40;;
63342;SDS011;49465;57.664;39.686;2023-04-03T07:10:23;17.63;;;14.23;;
63342;SDS011;49465;57.664;39.686;2023-04-03T07:12:49;18.67;;;13.70;;
63342;SDS011;49465;57.664;39.686;2023-04-03T07:15:19;17.20;;;13.23;;
63342;SDS011;49465;57.664;39.686;2023-04-03T07:17:49;16.50;;;12.98;;
63342;SDS011;49465;57.664;39.686;2023-04-03T07:20:18;16.48;;;12.68;;
63342;SDS011;49465;57.664;39.686;2023-04-03T07:22:47;16.85;;;12.27;;
63342;SDS011;49465;57.664;39.686;2023-04-03T07:25:13;18.55;;;12.85;;
63342;SDS011;49465;57.664;39.686;2023-04-03T07:27:43;16.13;;;12.65;;
63342;SDS011;49465;57.664;39.686;2023-04-03T07:30:12;17.83;;;12.80;;
63342;SDS011;49465;57.664;39.686;2023-04-03T07:32:39;15.60;;;12.60;;
63342;SDS011;49465;57.664;39.686;2023-04-03T07:35:05;16.92;;;12.90;;
63342;SDS011;49465;57.664;39.686;2023-04-03T07:37:35;17.02;;;13.27;;
63342;SDS011;49465;57.664;39.686;2023-04-03T07:40:04;17.83;;;12.80;;
63342;SDS011;49465;57.664;39.686;2023-04-03T07:42:31;16.48;;;12.02;;
63342;SDS011;49465;57.664;39.686;2023-04-03T07:45:02;19.70;;;13.02;;
63342;SDS011;49465;57.664;39.686;2023-04-03T07:47:29;20.88;;;13.10;;
63342;SDS011;49465;57.664;39.686;2023-04-03T07:49:56;15.73;;;12.73;;
63342;SDS011;49465;57.664;39.686;2023-04-03T07:52:25;14.85;;;12.25;;
63342;SDS011;49465;57.664;39.686;2023-04-03T07:54:57;19.33;;;12.60;;
63342;SDS011;49465;57.664;39.686;2023-04-03T07:57:24;21.58;;;13.20;;
63342;SDS011;49465;57.664;39.686;2023-04-03T07:59:50;18.83;;;12.93;;
63342;SDS011;49465;57.664;39.686;2023-04-03T08:02:17;20.33;;;13.43;;
63342;SDS011;49465;57.664;39.686;2023-04-03T08:04:43;19.63;;;13.70;;
63342;SDS011;49465;57.664;39.686;2023-04-03T08:07:13;16.85;;;13.20;;
63342;SDS011;49465;57.664;39.686;2023-04-03T08:09:39;21.70;;;14.05;;
63342;SDS011;49465;57.664;39.686;2023-04-03T08:12:09;18.00;;;13.80;;
63342;SDS011;49465;57.664;39.686;2023-04-03T08:14:39;18.38;;;13.38;;
63342;SDS011;49465;57.664;39.686;2023-04-03T08:17:10;21.45;;;13.85;;
63342;SDS011;49465;57.664;39.686;2023-04-03T08:19:38;20.58;;;14.27;;
63342;SDS011;49465;57.664;39.686;2023-04-03T08:22:04;18.63;;;13.63;;
63342;SDS011;49465;57.664;39.686;2023-04-03T08:24:40;19.65;;;13.43;;
63342;SDS011;49465;57.664;39.686;2023-04-03T08:27:13;22.92;;;14.75;;
63342;SDS011;49465;57.664;39.686;2023-04-03T08:29:39;18.63;;;14.07;;
63342;SDS011;49465;57.664;39.686;2023-04-03T08:32:06;20.08;;;14.20;;
63342;SDS011;49465;57.664;39.686;2023-04-03T08:34:32;20.75;;;14.00;;
63342;SDS011;49465;57.664;39.686;2023-04-03T08:37:02;18.88;;;13.48;;
63342;SDS011;49465;57.664;39.686;2023-04-03T08:39:28;19.88;;;13.60;;
63342;SDS011;49465;57.664;39.686;2023-04-03T08:41:55;19.38;;;14.00;;
63342;SDS011;49465;57.664;39.686;2023-04-03T08:44:50;20.27;;;14.20;;
63342;SDS011;49465;57.664;39.686;2023-04-03T08:47:36;18.48;;;12.77;;
63342;SDS011;49465;57.664;39.686;2023-04-03T08:50:16;19.23;;;13.10;;
63342;SDS011;49465;57.664;39.686;2023-04-03T08:52:51;17.33;;;12.82;;
63342;SDS011;49465;57.664;39.686;2023-04-03T08:55:30;16.83;;;12.15;;
63342;SDS011;49465;57.664;39.686;2023-04-03T09:03:16;16.25;;;11.38;;
63342;SDS011;49465;57.664;39.686;2023-04-03T09:05:47;15.75;;;11.85;;
63342;SDS011;49465;57.664;39.686;2023-04-03T09:08:45;16.65;;;12.18;;
63342;SDS011;49465;57.664;39.686;2023-04-03T09:14:49;18.73;;;13.55;;
63342;SDS011;49465;57.664;39.686;2023-04-03T09:17:02;20.20;;;14.88;;
63342;SDS011;49465;57.664;39.686;2023-04-03T09:19:41;23.20;;;15.32;;
63342;SDS011;49465;57.664;39.686;2023-04-03T09:22:19;22.40;;;15.80;;
63342;SDS011;49465;57.664;39.686;2023-04-03T09:24:50;19.35;;;14.90;;
63342;SDS011;49465;57.664;39.686;2023-04-03T09:27:26;21.50;;;15.75;;
63342;SDS011;49465;57.664;39.686;2023-04-03T09:29:56;19.25;;;14.75;;
63342;SDS011;49465;57.664;39.686;2023-04-03T09:32:30;19.90;;;13.77;;
63342;SDS011;49465;57.664;39.686;2023-04-03T09:35:20;17.83;;;13.52;;
63342;SDS011;49465;57.664;39.686;2023-04-03T09:37:56;19.73;;;14.38;;
63342;SDS011;49465;57.664;39.686;2023-04-03T09:40:31;19.08;;;15.13;;
63342;SDS011;49465;57.664;39.686;2023-04-03T09:43:18;20.90;;;15.90;;
63342;SDS011;49465;57.664;39.686;2023-04-03T09:45:48;19.08;;;14.30;;
63342;SDS011;49465;57.664;39.686;2023-04-03T09:48:20;19.15;;;13.98;;
63342;SDS011;49465;57.664;39.686;2023-04-03T09:50:57;20.67;;;14.60;;
63342;SDS011;49465;57.664;39.686;2023-04-03T09:53:35;20.35;;;14.88;;
63342;SDS011;49465;57.664;39.686;2023-04-03T09:58:50;20.10;;;14.18;;
63342;SDS011;49465;57.664;39.686;2023-04-03T10:01:38;18.63;;;14.07;;
63342;SDS011;49465;57.664;39.686;2023-04-03T10:06:50;17.33;;;13.38;;
63342;SDS011;49465;57.664;39.686;2023-04-03T10:09:31;16.67;;;12.27;;
63342;SDS011;49465;57.664;39.686;2023-04-03T10:22:59;16.17;;;10.35;;
63342;SDS011;49465;57.664;39.686;2023-04-03T10:31:08;14.38;;;10.00;;
63342;SDS011;49465;57.664;39.686;2023-04-03T10:33:56;12.23;;;8.93;;
63342;SDS011;49465;57.664;39.686;2023-04-03T10:36:45;12.82;;;9.43;;
63342;SDS011;49465;57.664;39.686;2023-04-03T10:42:28;13.45;;;8.48;;
63342;SDS011;49465;57.664;39.686;2023-04-03T10:56:17;14.20;;;9.20;;
63342;SDS011;49465;57.664;39.686;2023-04-03T10:59:00;11.88;;;8.77;;
63342;SDS011;49465;57.664;39.686;2023-04-03T11:04:44;11.52;;;9.00;;
63342;SDS011;49465;57.664;39.686;2023-04-03T11:07:33;12.15;;;8.93;;
63342;SDS011;49465;57.664;39.686;2023-04-03T11:10:23;10.73;;;8.63;;
63342;SDS011;49465;57.664;39.686;2023-04-03T11:13:14;13.18;;;9.15;;
63342;SDS011;49465;57.664;39.686;2023-04-03T11:15:49;11.77;;;9.25;;
63342;SDS011;49465;57.664;39.686;2023-04-03T11:18:19;15.18;;;10.65;;
63342;SDS011;49465;57.664;39.686;2023-04-03T11:21:03;15.00;;;11.82;;
63342;SDS011;49465;57.664;39.686;2023-04-03T11:23:36;17.67;;;11.40;;
63342;SDS011;49465;57.664;39.686;2023-04-03T11:26:09;14.80;;;10.32;;
63342;SDS011;49465;57.664;39.686;2023-04-03T11:28:37;12.57;;;10.10;;
63342;SDS011;49465;57.664;39.686;2023-04-03T11:31:10;11.93;;;9.07;;
63342;SDS011;49465;57.664;39.686;2023-04-03T11:33:45;13.40;;;9.25;;
63342;SDS011;49465;57.664;39.686;2023-04-03T11:36:22;11.70;;;8.80;;
63342;SDS011;49465;57.664;39.686;2023-04-03T11:38:56;13.57;;;8.18;;
63342;SDS011;49465;57.664;39.686;2023-04-03T11:41:33;10.90;;;8.65;;
63342;SDS011;49465;57.664;39.686;2023-04-03T11:44:05;11.43;;;8.45;;
63342;SDS011;49465;57.664;39.686;2023-04-03T11:46:52;13.77;;;8.63;;
63342;SDS011;49465;57.664;39.686;2023-04-03T12:16:27;10.32;;;7.07;;
63342;SDS011;49465;57.664;39.686;2023-04-03T12:35:31;12.38;;;7.35;;
63342;SDS011;49465;57.664;39.686;2023-04-03T12:46:35;10.98;;;6.85;;
63342;SDS011;49465;57.664;39.686;2023-04-03T12:51:55;11.13;;;6.30;;
63342;SDS011;49465;57.664;39.686;2023-04-03T12:54:37;7.93;;;6.63;;
63342;SDS011;49465;57.664;39.686;2023-04-03T12:57:24;9.40;;;6.10;;
63342;SDS011;49465;57.664;39.686;2023-04-03T12:59:54;8.15;;;6.25;;
63342;SDS011;49465;57.664;39.686;2023-04-03T13:02:28;11.65;;;6.30;;
63342;SDS011;49465;57.664;39.686;2023-04-03T13:05:19;7.00;;;5.70;;
63342;SDS011;49465;57.664;39.686;2023-04-03T13:07:52;8.25;;;5.57;;
63342;SDS011;49465;57.664;39.686;2023-04-03T13:10:28;7.22;;;5.65;;
63342;SDS011;49465;57.664;39.686;2023-04-03T13:13:13;6.85;;;5.28;;
63342;SDS011;49465;57.664;39.686;2023-04-03T13:15:54;9.50;;;5.80;;
63342;SDS011;49465;57.664;39.686;2023-04-03T13:18:35;8.80;;;5.65;;
63342;SDS011;49465;57.664;39.686;2023-04-03T13:21:03;7.15;;;5.32;;
63342;SDS011;49465;57.664;39.686;2023-04-03T13:23:40;9.75;;;5.60;;
63342;SDS011;49465;57.664;39.686;2023-04-03T13:26:15;7.43;;;5.60;;
63342;SDS011;49465;57.664;39.686;2023-04-03T13:29:06;8.27;;;5.78;;
63342;SDS011;49465;57.664;39.686;2023-04-03T13:31:44;6.55;;;5.20;;
63342;SDS011;49465;57.664;39.686;2023-04-03T13:34:25;9.48;;;5.30;;
63342;SDS011;49465;57.664;39.686;2023-04-03T13:37:00;8.30;;;5.40;;
63342;SDS011;49465;57.664;39.686;2023-04-03T13:39:38;7.40;;;5.60;;
63342;SDS011;49465;57.664;39.686;2023-04-03T13:42:29;8.60;;;6.07;;
63342;SDS011;49465;57.664;39.686;2023-04-03T13:45:21;8.45;;;5.90;;
63342;SDS011;49465;57.664;39.686;2023-04-03T13:50:51;11.23;;;6.38;;
63342;SDS011;49465;57.664;39.686;2023-04-03T13:53:21;7.82;;;6.40;;
63342;SDS011;49465;57.664;39.686;2023-04-03T13:55:55;9.32;;;6.32;;
63342;SDS011;49465;57.664;39.686;2023-04-03T13:58:34;7.20;;;6.10;;
63342;SDS011;49465;57.664;39.686;2023-04-03T14:06:36;9.10;;;6.57;;
63342;SDS011;49465;57.664;39.686;2023-04-03T14:09:06;10.52;;;6.90;;
63342;SDS011;49465;57.664;39.686;2023-04-03T14:11:35;10.90;;;6.68;;
63342;SDS011;49465;57.664;39.686;2023-04-03T14:14:09;9.05;;;5.93;;
63342;SDS011;49465;57.664;39.686;2023-04-03T14:16:47;7.53;;;5.82;;
63342;SDS011;49465;57.664;39.686;2023-04-03T14:19:41;7.40;;;6.03;;
63342;SDS011;49465;57.664;39.686;2023-04-03T14:22:16;8.85;;;6.35;;
63342;SDS011;49465;57.664;39.686;2023-04-03T14:24:49;11.25;;;6.93;;
63342;SDS011;49465;57.664;39.686;2023-04-03T14:29:45;8.50;;;6.50;;
63342;SDS011;49465;57.664;39.686;2023-04-03T14:32:13;13.50;;;9.73;;
63342;SDS011;49465;57.664;39.686;2023-04-03T14:34:42;13.45;;;8.15;;
63342;SDS011;49465;57.664;39.686;2023-04-03T14:37:18;10.13;;;7.63;;
63342;SDS011;49465;57.664;39.686;2023-04-03T14:39:50;10.15;;;7.57;;
63342;SDS011;49465;57.664;39.686;2023-04-03T14:42:22;9.57;;;6.88;;
63342;SDS011;49465;57.664;39.686;2023-04-03T14:44:58;9.48;;;7.00;;
63342;SDS011;49465;57.664;39.686;2023-04-03T14:47:26;11.50;;;6.93;;
63342;SDS011;49465;57.664;39.686;2023-04-03T14:50:02;13.27;;;6.93;;
63342;SDS011;49465;57.664;39.686;2023-04-03T14:52:34;9.20;;;7.20;;
63342;SDS011;49465;57.664;39.686;2023-04-03T14:55:04;9.13;;;6.53;;
63342;SDS011;49465;57.664;39.686;2023-04-03T14:57:31;11.38;;;6.60;;
63342;SDS011;49465;57.664;39.686;2023-04-03T14:59:59;9.73;;;7.10;;
63342;SDS011;49465;57.664;39.686;2023-04-03T15:05:00;9.57;;;6.55;;
63342;SDS011;49465;57.664;39.686;2023-04-03T15:07:30;10.35;;;6.47;;
63342;SDS011;49465;57.664;39.686;2023-04-03T15:10:02;11.52;;;8.20;;
63342;SDS011;49465;57.664;39.686;2023-04-03T15:12:48;12.82;;;6.80;;
63342;SDS011;49465;57.664;39.686;2023-04-03T15:15:15;12.43;;;8.88;;
63342;SDS011;49465;57.664;39.686;2023-04-03T15:17:43;15.65;;;9.25;;
63342;SDS011;49465;57.664;39.686;2023-04-03T15:20:19;11.93;;;8.38;;
63342;SDS011;49465;57.664;39.686;2023-04-03T15:22:48;12.18;;;7.97;;
63342;SDS011;49465;57.664;39.686;2023-04-03T15:25:17;11.27;;;8.65;;
63342;SDS011;49465;57.664;39.686;2023-04-03T15:27:47;10.77;;;7.70;;
63342;SDS011;49465;57.664;39.686;2023-04-03T15:30:16;11.95;;;8.13;;
63342;SDS011;49465;57.664;39.686;2023-04-03T15:32:46;13.73;;;9.45;;
63342;SDS011;49465;57.664;39.686;2023-04-03T15:35:16;11.15;;;7.97;;
63342;SDS011;49465;57.664;39.686;2023-04-03T15:37:48;12.18;;;9.65;;
63342;SDS011;49465;57.664;39.686;2023-04-03T15:40:16;12.82;;;9.82;;
63342;SDS011;49465;57.664;39.686;2023-04-03T15:42:45;11.95;;;9.50;;
63342;SDS011;49465;57.664;39.686;2023-04-03T15:45:15;9.95;;;7.97;;
63342;SDS011;49465;57.664;39.686;2023-04-03T15:47:44;12.40;;;7.82;;
63342;SDS011;49465;57.664;39.686;2023-04-03T15:50:11;12.40;;;8.65;;
63342;SDS011;49465;57.664;39.686;2023-04-03T15:52:37;21.92;;;15.32;;
63342;SDS011;49465;57.664;39.686;2023-04-03T15:55:04;12.00;;;9.98;;
63342;SDS011;49465;57.664;39.686;2023-04-03T15:57:31;16.35;;;12.35;;
63342;SDS011;49465;57.664;39.686;2023-04-03T16:00:00;10.07;;;8.45;;
63342;SDS011;49465;57.664;39.686;2023-04-03T16:02:27;13.43;;;8.90;;
63342;SDS011;49465;57.664;39.686;2023-04-03T16:04:58;13.23;;;9.82;;
63342;SDS011;49465;57.664;39.686;2023-04-03T16:07:28;16.02;;;9.57;;
63342;SDS011;49465;57.664;39.686;2023-04-03T16:09:56;13.52;;;9.75;;
63342;SDS011;49465;57.664;39.686;2023-04-03T16:12:34;12.50;;;8.30;;
63342;SDS011;49465;57.664;39.686;2023-04-03T16:15:04;12.70;;;7.97;;
63342;SDS011;49465;57.664;39.686;2023-04-03T16:17:40;11.18;;;8.63;;
63342;SDS011;49465;57.664;39.686;2023-04-03T16:20:14;15.95;;;11.70;;
63342;SDS011;49465;57.664;39.686;2023-04-03T16:25:12;14.50;;;11.80;;
63342;SDS011;49465;57.664;39.686;2023-04-03T16:27:39;10.15;;;8.07;;
63342;SDS011;49465;57.664;39.686;2023-04-03T16:30:16;8.90;;;7.50;;
63342;SDS011;49465;57.664;39.686;2023-04-03T16:32:48;9.80;;;6.32;;
63342;SDS011;49465;57.664;39.686;2023-04-03T16:35:18;10.50;;;7.85;;
63342;SDS011;49465;57.664;39.686;2023-04-03T16:37:52;14.55;;;7.93;;
63342;SDS011;49465;57.664;39.686;2023-04-03T16:40:19;11.23;;;7.60;;
63342;SDS011;49465;57.664;39.686;2023-04-03T16:42:45;10.07;;;7.93;;
63342;SDS011;49465;57.664;39.686;2023-04-03T16:45:12;7.65;;;6.38;;
63342;SDS011;49465;57.664;39.686;2023-04-03T16:47:48;8.18;;;6.32;;
63342;SDS011;49465;57.664;39.686;2023-04-03T16:50:30;8.07;;;6.00;;
63342;SDS011;49465;57.664;39.686;2023-04-03T16:53:02;7.53;;;6.07;;